createdAt,value
2018-12-05T00:00:43.086Z,6.47
2018-12-05T00:03:11.626Z,5.00
2018-12-05T00:05:40.123Z,5.07
2018-12-05T00:08:08.606Z,4.80
2018-12-05T00:10:37.084Z,3.90
2018-12-05T00:13:05.658Z,4.83
2018-12-05T00:15:34.118Z,5.17
2018-12-05T00:18:02.586Z,4.70
2018-12-05T00:20:31.066Z,5.07
2018-12-05T00:22:59.609Z,4.50
2018-12-05T00:25:28.093Z,4.57
2018-12-05T00:27:56.558Z,5.10
2018-12-05T00:30:25.025Z,5.80
2018-12-05T00:32:53.526Z,5.00
2018-12-05T00:35:22.041Z,4.47
2018-12-05T00:37:50.507Z,5.07
2018-12-05T00:40:19.005Z,4.60
2018-12-05T00:42:47.465Z,4.40
2018-12-05T00:45:15.941Z,5.13
2018-12-05T00:47:44.480Z,5.50
2018-12-05T00:50:13.152Z,4.23
2018-12-05T00:52:41.621Z,4.83
2018-12-05T00:55:10.105Z,5.00
2018-12-05T00:57:38.581Z,4.77
2018-12-05T01:00:08.654Z,5.43
2018-12-05T01:02:37.148Z,4.33
2018-12-05T01:05:07.814Z,5.17
2018-12-05T01:07:36.480Z,4.87
2018-12-05T01:10:06.256Z,4.93
2018-12-05T01:12:34.743Z,6.07
2018-12-05T01:15:03.486Z,6.27
2018-12-05T01:17:31.976Z,5.13
2018-12-05T01:20:00.572Z,5.30
2018-12-05T01:22:29.068Z,5.50
2018-12-05T01:24:57.548Z,5.10
2018-12-05T01:27:26.028Z,4.77
2018-12-05T01:29:54.520Z,4.60
2018-12-05T01:32:23.040Z,4.70
2018-12-05T01:34:51.652Z,5.90
2018-12-05T01:37:20.124Z,5.63
2018-12-05T01:39:48.619Z,5.13
2018-12-05T01:42:17.140Z,5.20
2018-12-05T01:44:45.904Z,4.83
2018-12-05T01:47:14.379Z,5.40
2018-12-05T01:49:42.864Z,4.63
2018-12-05T01:52:11.340Z,4.53
2018-12-05T01:54:39.931Z,4.50
2018-12-05T01:57:08.560Z,5.20
2018-12-05T01:59:37.040Z,5.30
2018-12-05T02:02:05.504Z,4.63
2018-12-05T02:04:33.996Z,5.03
2018-12-05T02:07:02.627Z,5.07
2018-12-05T02:09:31.112Z,4.33
2018-12-05T02:11:59.690Z,4.67
2018-12-05T02:14:28.188Z,5.37
2018-12-05T02:16:56.671Z,4.83
2018-12-05T02:19:25.154Z,4.47
2018-12-05T02:21:53.649Z,4.53
2018-12-05T02:24:22.136Z,4.57
2018-12-05T02:26:50.727Z,4.00
2018-12-05T02:29:19.207Z,3.60
2018-12-05T02:31:48.383Z,4.00
2018-12-05T02:34:16.875Z,4.60
2018-12-05T02:36:45.379Z,3.73
2018-12-05T02:39:13.844Z,3.50
2018-12-05T02:41:42.339Z,3.50
2018-12-05T02:44:10.828Z,3.93
2018-12-05T02:46:39.315Z,4.00
2018-12-05T02:49:07.791Z,4.10
2018-12-05T02:51:36.243Z,4.90
2018-12-05T02:54:04.843Z,4.30
2018-12-05T02:56:33.400Z,4.13
2018-12-05T02:59:01.930Z,4.47
2018-12-05T03:01:30.682Z,4.83
2018-12-05T03:03:59.207Z,4.70
2018-12-05T03:06:27.663Z,4.77
2018-12-05T03:08:56.147Z,4.77
2018-12-05T03:11:24.626Z,5.40
2018-12-05T03:13:53.090Z,4.33
2018-12-05T03:17:24.803Z,4.43
2018-12-05T03:19:53.254Z,3.93
2018-12-05T03:22:21.758Z,4.93
2018-12-05T03:24:50.215Z,4.37
2018-12-05T03:27:18.709Z,4.07
2018-12-05T03:29:47.198Z,5.07
2018-12-05T03:32:15.714Z,4.70
2018-12-05T03:34:44.269Z,5.73
2018-12-05T03:37:12.739Z,4.53
2018-12-05T03:39:41.249Z,4.07
2018-12-05T03:42:09.714Z,4.77
2018-12-05T03:44:38.973Z,6.73
2018-12-05T03:47:07.518Z,4.77
2018-12-05T03:49:36.010Z,4.47
2018-12-05T03:52:04.673Z,3.63
2018-12-05T03:54:33.137Z,4.10
2018-12-05T03:57:01.634Z,4.60
2018-12-05T03:59:30.128Z,4.97
2018-12-05T04:01:58.681Z,4.73
2018-12-05T04:04:27.181Z,5.33
2018-12-05T04:06:55.669Z,5.17
2018-12-05T04:09:24.161Z,5.60
2018-12-05T04:11:52.658Z,5.30
2018-12-05T04:14:21.149Z,4.40
2018-12-05T04:16:49.640Z,4.80
2018-12-05T04:19:18.118Z,4.43
2018-12-05T04:21:47.009Z,4.90
2018-12-05T04:24:15.481Z,4.43
2018-12-05T04:26:43.940Z,4.60
2018-12-05T04:29:12.422Z,5.67
2018-12-05T04:31:40.894Z,6.37
2018-12-05T04:34:09.390Z,6.00
2018-12-05T04:36:37.869Z,6.13
2018-12-05T04:39:08.788Z,5.40
2018-12-05T04:41:37.241Z,5.37
2018-12-05T04:44:06.030Z,6.10
2018-12-05T04:46:34.517Z,6.27
2018-12-05T04:49:02.993Z,6.07
2018-12-05T04:51:31.477Z,5.37
2018-12-05T04:54:00.230Z,5.43
2018-12-05T04:56:28.697Z,6.53
2018-12-05T04:58:57.169Z,6.03
2018-12-05T05:01:25.782Z,5.80
2018-12-05T05:03:54.268Z,5.67
2018-12-05T05:06:22.729Z,5.83
2018-12-05T05:08:51.213Z,7.57
2018-12-05T05:11:19.712Z,9.87
2018-12-05T05:13:48.197Z,7.27
2018-12-05T05:16:16.697Z,6.87
2018-12-05T05:18:45.160Z,6.93
2018-12-05T05:21:13.636Z,7.17
2018-12-05T05:23:42.142Z,6.20
2018-12-05T05:26:10.617Z,6.37
2018-12-05T05:28:39.081Z,5.70
2018-12-05T05:31:07.562Z,6.83
2018-12-05T05:33:36.242Z,7.20
2018-12-05T05:36:04.726Z,8.67
2018-12-05T05:38:33.235Z,7.03
2018-12-05T05:41:01.718Z,6.90
2018-12-05T05:43:30.201Z,6.17
2018-12-05T05:45:58.730Z,4.57
2018-12-05T05:48:27.215Z,4.83
2018-12-05T05:50:55.788Z,5.40
2018-12-05T05:53:24.298Z,5.40
2018-12-05T05:55:52.793Z,5.37
2018-12-05T05:58:21.270Z,6.37
2018-12-05T06:00:49.784Z,6.60
2018-12-05T06:03:18.234Z,5.87
2018-12-05T06:05:46.684Z,6.67
2018-12-05T06:08:15.400Z,8.40
2018-12-05T06:10:43.897Z,7.83
2018-12-05T06:13:12.415Z,6.13
2018-12-05T06:15:40.882Z,10.93
2018-12-05T06:18:09.330Z,8.23
2018-12-05T06:20:37.794Z,7.87
2018-12-05T06:23:06.310Z,7.20
2018-12-05T06:25:34.894Z,6.83
2018-12-05T06:28:03.363Z,9.23
2018-12-05T06:30:31.840Z,8.03
2018-12-05T06:33:00.341Z,6.50
2018-12-05T06:35:28.821Z,7.00
2018-12-05T06:37:57.465Z,7.90
2018-12-05T06:40:25.978Z,10.50
2018-12-05T06:42:54.580Z,16.13
2018-12-05T06:45:23.066Z,8.50
2018-12-05T06:47:51.544Z,9.07
2018-12-05T06:50:20.098Z,20.00
2018-12-05T06:52:48.584Z,21.50
2018-12-05T06:55:17.064Z,24.17
2018-12-05T06:57:45.620Z,15.83
2018-12-05T07:00:14.249Z,37.90
2018-12-05T07:02:46.107Z,19.27
2018-12-05T07:05:14.720Z,19.23
2018-12-05T07:07:43.233Z,20.17
2018-12-05T07:10:11.732Z,22.37
2018-12-05T07:12:40.200Z,13.70
2018-12-05T07:15:08.883Z,14.80
2018-12-05T07:17:37.383Z,18.83
2018-12-05T07:20:08.274Z,13.40
2018-12-05T07:22:36.791Z,12.60
2018-12-05T07:25:05.948Z,13.83
2018-12-05T07:27:34.420Z,11.83
2018-12-05T07:30:03.012Z,12.50
2018-12-05T07:32:31.475Z,11.90
2018-12-05T07:34:59.951Z,10.87
2018-12-05T07:37:28.423Z,13.77
2018-12-05T07:39:56.896Z,12.57
2018-12-05T07:42:25.391Z,16.93
2018-12-05T07:44:54.027Z,14.77
2018-12-05T07:47:22.499Z,13.13
2018-12-05T07:49:50.963Z,12.70
2018-12-05T07:52:19.459Z,12.87
2018-12-05T07:54:47.924Z,13.07
2018-12-05T07:57:16.423Z,11.07
2018-12-05T07:59:44.890Z,11.77
2018-12-05T08:02:13.363Z,13.40
2018-12-05T08:04:41.839Z,12.83
2018-12-05T08:07:10.334Z,11.20
2018-12-05T08:09:38.831Z,10.87
2018-12-05T08:12:07.327Z,11.20
2018-12-05T08:14:35.911Z,10.70
2018-12-05T08:17:04.403Z,9.93
2018-12-05T08:19:32.887Z,11.17
2018-12-05T08:22:01.399Z,10.43
2018-12-05T08:24:29.903Z,10.37
2018-12-05T08:26:58.390Z,9.67
2018-12-05T08:29:26.926Z,10.80
2018-12-05T08:31:55.469Z,9.87
2018-12-05T08:34:24.278Z,10.57
2018-12-05T08:36:52.782Z,9.20
2018-12-05T08:39:21.270Z,9.07
2018-12-05T08:41:49.878Z,11.23
2018-12-05T08:44:18.382Z,11.50
2018-12-05T08:46:47.010Z,10.33
2018-12-05T08:49:15.482Z,11.47
2018-12-05T08:51:43.997Z,13.13
2018-12-05T08:54:12.482Z,10.33
2018-12-05T08:56:40.990Z,11.20
2018-12-05T08:59:09.476Z,13.07
2018-12-05T09:01:37.941Z,12.07
2018-12-05T09:04:06.741Z,10.70
2018-12-05T09:06:35.269Z,10.83
2018-12-05T09:09:04.501Z,10.97
2018-12-05T09:11:33.005Z,10.87
2018-12-05T09:14:01.485Z,10.70
2018-12-05T09:16:29.950Z,10.87
2018-12-05T09:18:58.465Z,10.57
2018-12-05T09:21:27.065Z,9.73
2018-12-05T09:24:58.425Z,11.53
2018-12-05T09:27:26.917Z,9.77
2018-12-05T09:29:55.378Z,9.70
2018-12-05T09:32:23.909Z,10.13
2018-12-05T09:34:52.405Z,9.37
2018-12-05T09:37:20.901Z,9.47
2018-12-05T09:39:49.377Z,9.77
2018-12-05T09:42:17.869Z,8.53
2018-12-05T09:44:46.349Z,8.97
2018-12-05T09:47:16.055Z,9.60
2018-12-05T09:49:44.953Z,8.57
2018-12-05T09:52:13.436Z,8.67
2018-12-05T09:54:41.970Z,8.60
2018-12-05T09:57:10.505Z,8.63
2018-12-05T09:59:38.975Z,12.13
2018-12-05T10:02:07.436Z,6.43
2018-12-05T10:04:35.912Z,8.07
2018-12-05T10:07:04.372Z,8.00
2018-12-05T10:09:32.872Z,8.33
2018-12-05T10:12:01.360Z,8.77
2018-12-05T10:14:29.823Z,7.73
2018-12-05T10:16:58.419Z,8.00
2018-12-05T10:19:26.873Z,8.37
2018-12-05T10:21:55.631Z,7.03
2018-12-05T10:24:24.087Z,7.60
2018-12-05T10:26:52.554Z,9.07
2018-12-05T10:29:21.031Z,8.20
2018-12-05T10:31:49.630Z,9.60
2018-12-05T10:34:18.118Z,8.07
2018-12-05T10:36:46.572Z,8.20
2018-12-05T10:39:15.046Z,8.77
2018-12-05T10:41:43.558Z,8.10
2018-12-05T10:44:12.086Z,8.63
2018-12-05T10:46:40.570Z,8.10
2018-12-05T10:49:09.161Z,9.07
2018-12-05T10:51:37.927Z,7.77
2018-12-05T10:54:07.506Z,8.47
2018-12-05T10:56:36.054Z,9.27
2018-12-05T10:59:04.782Z,8.63
2018-12-05T11:01:38.670Z,7.80
2018-12-05T11:04:12.702Z,7.20
2018-12-05T11:06:47.393Z,9.27
2018-12-05T11:09:21.058Z,7.80
2018-12-05T11:12:53.362Z,11.30
2018-12-05T11:15:27.161Z,7.60
2018-12-05T11:18:01.109Z,7.17
2018-12-05T11:20:35.017Z,7.60
2018-12-05T11:23:08.928Z,6.83
2018-12-05T11:25:37.495Z,7.30
2018-12-05T11:28:06.077Z,6.27
2018-12-05T11:30:34.717Z,6.57
2018-12-05T11:33:03.198Z,6.80
2018-12-05T11:35:31.668Z,7.70
2018-12-05T11:38:00.169Z,7.67
2018-12-05T11:40:28.761Z,6.93
2018-12-05T11:42:57.247Z,6.70
2018-12-05T11:45:25.696Z,6.97
2018-12-05T11:47:54.165Z,8.23
2018-12-05T11:50:22.649Z,7.47
2018-12-05T11:52:51.124Z,7.03
2018-12-05T11:55:19.621Z,7.10
2018-12-05T11:57:48.289Z,7.97
2018-12-05T12:00:16.765Z,7.23
2018-12-05T12:02:45.248Z,6.83
2018-12-05T12:05:13.864Z,7.07
2018-12-05T12:07:42.364Z,6.77
2018-12-05T12:10:11.068Z,8.17
2018-12-05T12:12:45.008Z,8.03
2018-12-05T12:15:14.117Z,10.90
2018-12-05T12:17:42.621Z,9.80
2018-12-05T12:20:11.348Z,9.50
2018-12-05T12:22:39.938Z,8.43
2018-12-05T12:25:08.597Z,10.97
2018-12-05T12:27:37.100Z,11.53
2018-12-05T12:30:05.768Z,6.53
2018-12-05T12:32:34.264Z,7.83
2018-12-05T12:35:02.900Z,7.90
2018-12-05T12:37:31.376Z,6.90
2018-12-05T12:39:59.912Z,8.97
2018-12-05T12:42:28.392Z,8.20
2018-12-05T12:44:56.919Z,6.47
2018-12-05T12:47:25.411Z,6.77
2018-12-05T12:49:53.916Z,7.63
2018-12-05T12:52:22.399Z,7.97
2018-12-05T12:54:50.884Z,8.10
2018-12-05T12:57:19.411Z,7.87
2018-12-05T12:59:47.880Z,7.37
2018-12-05T13:02:16.369Z,7.33
2018-12-05T13:04:44.868Z,9.10
2018-12-05T13:07:13.901Z,7.47
2018-12-05T13:09:42.392Z,7.77
2018-12-05T13:12:12.888Z,8.93
2018-12-05T13:14:41.371Z,9.30
2018-12-05T13:17:09.832Z,8.40
2018-12-05T13:19:38.285Z,8.47
2018-12-05T13:22:06.823Z,7.80
2018-12-05T13:24:35.312Z,8.10
2018-12-05T13:27:03.864Z,9.43
2018-12-05T13:29:32.351Z,7.63
2018-12-05T13:32:00.833Z,8.33
2018-12-05T13:34:29.304Z,9.37
2018-12-05T13:36:57.804Z,10.10
2018-12-05T13:39:26.384Z,10.80
2018-12-05T13:41:54.880Z,8.27
2018-12-05T13:44:23.364Z,8.07
2018-12-05T13:46:51.860Z,9.63
2018-12-05T13:49:20.459Z,11.17
2018-12-05T13:51:48.960Z,10.83
2018-12-05T13:54:17.772Z,12.17
2018-12-05T13:56:46.284Z,9.03
2018-12-05T13:59:14.955Z,9.00
2018-12-05T14:01:43.448Z,8.53
2018-12-05T14:04:11.927Z,7.97
2018-12-05T14:06:40.413Z,8.77
2018-12-05T14:09:08.903Z,13.17
2018-12-05T14:11:37.384Z,14.00
2018-12-05T14:14:05.892Z,14.43
2018-12-05T14:16:34.391Z,34.13
2018-12-05T14:19:02.872Z,16.40
2018-12-05T14:21:31.367Z,16.60
2018-12-05T14:23:59.878Z,32.77
2018-12-05T14:26:28.398Z,24.70
2018-12-05T14:28:56.913Z,21.93
2018-12-05T14:31:25.403Z,21.43
2018-12-05T14:33:53.863Z,12.87
2018-12-05T14:36:22.351Z,14.10
2018-12-05T14:38:50.843Z,12.30
2018-12-05T14:41:19.419Z,15.87
2018-12-05T14:43:47.895Z,35.10
2018-12-05T14:46:16.371Z,32.97
2018-12-05T14:48:44.851Z,32.17
2018-12-05T14:51:13.323Z,35.33
2018-12-05T14:53:41.829Z,16.97
2018-12-05T14:56:10.288Z,9.53
2018-12-05T14:58:38.782Z,9.63
2018-12-05T15:01:07.286Z,11.87
2018-12-05T15:03:35.778Z,13.67
2018-12-05T15:06:04.281Z,16.20
2018-12-05T15:08:32.789Z,36.50
2018-12-05T15:11:01.289Z,43.83
2018-12-05T15:13:29.801Z,30.53
2018-12-05T15:15:58.296Z,23.93
2018-12-05T15:18:26.785Z,17.77
2018-12-05T15:20:55.283Z,17.67
2018-12-05T15:23:23.774Z,22.87
2018-12-05T15:25:52.286Z,18.77
2018-12-05T15:28:20.781Z,16.87
2018-12-05T15:30:49.273Z,16.07
2018-12-05T15:33:17.867Z,17.27
2018-12-05T15:35:46.376Z,47.13
2018-12-05T15:38:14.928Z,40.43
2018-12-05T15:40:43.416Z,27.77
2018-12-05T15:43:12.217Z,22.87
2018-12-05T15:45:40.748Z,23.57
2018-12-05T15:48:09.244Z,25.20
2018-12-05T15:50:37.780Z,37.87
2018-12-05T15:53:06.268Z,117.27
2018-12-05T15:55:35.108Z,123.80
2018-12-05T15:58:03.740Z,95.37
2018-12-05T16:00:32.360Z,238.13
2018-12-05T16:03:00.869Z,202.20
2018-12-05T16:05:29.377Z,172.10
2018-12-05T16:07:57.914Z,110.30
2018-12-05T16:10:26.400Z,89.03
2018-12-05T16:12:54.872Z,78.47
2018-12-05T16:15:23.708Z,59.57
2018-12-05T16:17:52.220Z,36.20
2018-12-05T16:20:20.704Z,33.73
2018-12-05T16:22:50.048Z,45.20
2018-12-05T16:25:18.560Z,31.17
2018-12-05T16:27:47.040Z,23.13
2018-12-05T16:30:15.667Z,22.70
2018-12-05T16:32:44.191Z,18.40
2018-12-05T16:35:12.696Z,13.53
2018-12-05T16:37:41.212Z,15.17
2018-12-05T16:40:09.799Z,17.53
2018-12-05T16:42:38.391Z,18.27
2018-12-05T16:45:07.816Z,16.53
2018-12-05T16:47:36.287Z,17.57
2018-12-05T16:50:05.220Z,15.50
2018-12-05T16:52:33.708Z,18.20
2018-12-05T16:55:02.209Z,20.70
2018-12-05T16:57:30.741Z,20.87
2018-12-05T16:59:59.211Z,17.93
2018-12-05T17:02:27.683Z,18.80
2018-12-05T17:04:56.200Z,30.00
2018-12-05T17:07:24.671Z,38.27
2018-12-05T17:09:53.187Z,45.13
2018-12-05T17:12:21.683Z,57.13
2018-12-05T17:14:50.183Z,39.00
2018-12-05T17:17:18.691Z,52.27
2018-12-05T17:19:47.207Z,53.30
2018-12-05T17:22:15.711Z,51.63
2018-12-05T17:24:44.191Z,53.10
2018-12-05T17:27:12.808Z,55.13
2018-12-05T17:29:41.299Z,55.03
2018-12-05T17:32:09.635Z,54.30
2018-12-05T17:34:38.119Z,56.63
2018-12-05T17:37:06.922Z,60.87
2018-12-05T17:39:35.435Z,66.90
2018-12-05T17:42:03.643Z,64.23
2018-12-05T17:44:32.123Z,69.40
2018-12-05T17:47:00.711Z,69.00
2018-12-05T17:49:29.231Z,70.97
2018-12-05T17:51:57.719Z,82.87
2018-12-05T17:54:26.203Z,81.80
2018-12-05T17:56:54.763Z,133.67
2018-12-05T17:59:23.235Z,115.60
2018-12-05T18:01:51.710Z,128.30
2018-12-05T18:04:20.199Z,120.30
2018-12-05T18:06:48.696Z,112.30
2018-12-05T18:09:17.215Z,134.50
2018-12-05T18:11:45.706Z,233.10
2018-12-05T18:14:14.197Z,159.47
2018-12-05T18:16:42.958Z,93.40
2018-12-05T18:19:11.458Z,72.27
2018-12-05T18:21:39.977Z,104.17
2018-12-05T18:24:08.749Z,121.27
2018-12-05T18:26:37.388Z,111.27
2018-12-05T18:29:05.881Z,112.13
2018-12-05T18:31:34.364Z,99.87
2018-12-05T18:34:02.864Z,97.60
2018-12-05T18:36:31.456Z,102.13
2018-12-05T18:38:59.972Z,82.97
2018-12-05T18:41:28.468Z,96.00
2018-12-05T18:43:56.980Z,91.83
2018-12-05T18:46:25.487Z,97.30
2018-12-05T18:48:53.959Z,87.80
2018-12-05T18:51:22.864Z,127.20
2018-12-05T18:53:51.370Z,95.63
2018-12-05T18:56:19.984Z,106.60
2018-12-05T18:58:48.499Z,105.07
2018-12-05T19:01:17.035Z,95.10
2018-12-05T19:03:45.519Z,88.40
2018-12-05T19:06:14.049Z,86.50
2018-12-05T19:08:43.304Z,86.07
2018-12-05T19:11:11.845Z,85.20
2018-12-05T19:13:45.754Z,83.67
2018-12-05T19:16:14.251Z,78.87
2018-12-05T19:18:42.771Z,78.87
2018-12-05T19:21:11.427Z,88.53
2018-12-05T19:23:39.972Z,88.83
2018-12-05T19:26:08.447Z,132.07
2018-12-05T19:28:37.099Z,191.07
2018-12-05T19:31:05.749Z,178.50
2018-12-05T19:33:34.283Z,139.83
2018-12-05T19:36:02.767Z,97.13
2018-12-05T19:38:31.255Z,92.23
2018-12-05T19:40:59.739Z,94.67
2018-12-05T19:43:28.570Z,70.70
2018-12-05T19:45:57.234Z,57.43
2018-12-05T19:48:25.706Z,49.50
2018-12-05T19:50:54.246Z,51.50
2018-12-05T19:53:22.762Z,35.67
2018-12-05T19:55:51.270Z,41.40
2018-12-05T19:58:19.802Z,39.93
2018-12-05T20:00:48.678Z,51.33
2018-12-05T20:03:17.155Z,56.80
2018-12-05T20:05:45.654Z,51.93
2018-12-05T20:08:14.226Z,59.17
2018-12-05T20:10:42.792Z,60.90
2018-12-05T20:13:11.461Z,55.93
2018-12-05T20:15:40.094Z,53.40
2018-12-05T20:18:09.070Z,62.07
2018-12-05T20:20:37.618Z,54.17
2018-12-05T20:23:06.218Z,48.20
2018-12-05T20:25:34.833Z,60.13
2018-12-05T20:28:03.414Z,57.50
2018-12-05T20:30:31.911Z,108.50
2018-12-05T20:33:00.376Z,126.33
2018-12-05T20:35:28.852Z,67.77
2018-12-05T20:37:57.341Z,62.30
2018-12-05T20:40:25.892Z,64.60
2018-12-05T20:42:54.401Z,62.13
2018-12-05T20:45:22.992Z,64.87
2018-12-05T20:47:51.475Z,66.07
2018-12-05T20:50:20.092Z,77.13
2018-12-05T20:52:48.638Z,59.77
2018-12-05T20:55:17.127Z,59.97
2018-12-05T20:57:45.613Z,59.93
2018-12-05T21:00:14.212Z,56.93
2018-12-05T21:02:42.734Z,56.17
2018-12-05T21:05:11.436Z,54.43
2018-12-05T21:07:40.043Z,53.90
2018-12-05T21:10:08.532Z,53.20
2018-12-05T21:12:37.052Z,53.63
2018-12-05T21:15:06.092Z,53.17
2018-12-05T21:17:34.579Z,56.67
2018-12-05T21:20:03.175Z,55.87
2018-12-05T21:22:31.676Z,83.30
2018-12-05T21:25:00.176Z,73.80
2018-12-05T21:27:28.711Z,77.20
2018-12-05T21:29:57.228Z,61.20
2018-12-05T21:32:25.735Z,51.47
2018-12-05T21:34:54.243Z,48.40
2018-12-05T21:37:22.824Z,48.07
2018-12-05T21:39:51.611Z,45.50
2018-12-05T21:42:21.015Z,45.93
2018-12-05T21:44:49.687Z,52.30
2018-12-05T21:47:18.195Z,54.70
2018-12-05T21:49:46.723Z,69.93
2018-12-05T21:52:15.339Z,93.87
2018-12-05T21:54:43.842Z,77.17
2018-12-05T21:57:12.304Z,85.17
2018-12-05T21:59:40.807Z,91.87
2018-12-05T22:02:09.322Z,73.50
2018-12-05T22:04:37.822Z,62.83
2018-12-05T22:07:06.451Z,76.03
2018-12-05T22:09:34.954Z,92.50
2018-12-05T22:12:03.455Z,98.47
2018-12-05T22:14:31.970Z,84.50
2018-12-05T22:17:00.570Z,84.60
2018-12-05T22:19:29.148Z,95.03
2018-12-05T22:21:57.630Z,83.00
2018-12-05T22:24:26.104Z,79.30
2018-12-05T22:26:54.606Z,76.63
2018-12-05T22:29:23.107Z,83.20
2018-12-05T22:31:51.587Z,75.30
2018-12-05T22:34:20.107Z,69.83
2018-12-05T22:36:48.695Z,68.73
2018-12-05T22:39:17.194Z,66.87
2018-12-05T22:41:45.803Z,67.53
2018-12-05T22:44:14.322Z,65.80
2018-12-05T22:46:42.830Z,62.43
2018-12-05T22:49:11.317Z,73.03
2018-12-05T22:51:39.793Z,88.40
2018-12-05T22:54:08.388Z,92.93
2018-12-05T22:56:36.981Z,97.43
2018-12-05T22:59:05.480Z,92.83
2018-12-05T23:01:33.960Z,111.27
2018-12-05T23:04:02.576Z,123.13
2018-12-05T23:06:31.080Z,110.07
2018-12-05T23:08:59.556Z,98.73
2018-12-05T23:11:28.047Z,81.03
2018-12-05T23:13:56.564Z,75.57
2018-12-05T23:16:25.064Z,86.87
2018-12-05T23:18:53.573Z,169.20
2018-12-05T23:21:22.205Z,136.67
2018-12-05T23:23:50.703Z,133.27
2018-12-05T23:26:19.266Z,111.57
2018-12-05T23:28:53.499Z,117.33
2018-12-05T23:31:22.007Z,112.93
2018-12-05T23:33:50.511Z,95.77
2018-12-05T23:36:19.023Z,89.83
2018-12-05T23:38:47.531Z,93.07
2018-12-05T23:41:16.019Z,78.37
2018-12-05T23:43:44.607Z,67.40
2018-12-05T23:46:13.095Z,61.53
2018-12-05T23:48:41.579Z,51.40
2018-12-05T23:51:10.079Z,60.97
2018-12-05T23:53:38.599Z,60.20
2018-12-05T23:56:07.183Z,59.93
2018-12-05T23:58:35.663Z,63.03
